Time;durP1;ratioP1;P1;durP2;ratioP2;P2;SDS_P1;SDS_P2;PMS_P1;PMS_P2;Temp;Humidity;BMP_temperature;BMP_pressure;BME280_temperature;BME280_humidity;BME280_pressure;Samples;Min_cycle;Max_cycle;Signal;HPM_P1;HPM_P2
2022/08/30 00:02:19;;;;;;;8.03;4.53;;;;;;;24.74;100.00;101267.28;2073343;28;20251;-63
2022/08/30 00:03:20;;;;;;;6.30;4.00;;;;;;;24.86;100.00;101285.03;2074765;28;20596;-62
2022/08/30 00:04:21;;;;;;;5.03;4.10;;;;;;;24.91;100.00;101287.09;2076658;28;20216;-63
2022/08/30 00:05:22;;;;;;;4.37;3.93;;;;;;;24.85;100.00;101281.47;2072775;28;20185;-63
2022/08/30 00:06:24;;;;;;;4.80;4.03;;;;;;;24.82;100.00;101282.47;2074490;28;20671;-63
2022/08/30 00:07:25;;;;;;;7.20;4.10;;;;;;;24.82;100.00;101285.31;2075079;28;20710;-63
2022/08/30 00:08:26;;;;;;;4.90;4.33;;;;;;;24.23;100.00;101196.91;2086874;28;20591;-64
2022/08/30 00:09:26;;;;;;;5.13;4.27;;;;;;;24.81;100.00;101278.09;2086554;28;20185;-64
2022/08/30 00:10:28;;;;;;;5.40;4.20;;;;;;;24.80;100.00;101287.91;2088128;28;20638;-63
2022/08/30 00:11:29;;;;;;;6.40;4.13;;;;;;;24.78;100.00;101284.03;2088679;28;20657;-63
2022/08/30 00:12:30;;;;;;;7.23;4.63;;;;;;;24.72;100.00;101278.34;2088670;28;20671;-63
2022/08/30 00:13:31;;;;;;;5.57;4.23;;;;;;;24.24;100.00;101204.09;2087239;28;20188;-63
2022/08/30 00:14:32;;;;;;;6.53;4.43;;;;;;;24.74;100.00;101283.50;2088666;28;20658;-63
2022/08/30 00:15:33;;;;;;;6.77;4.00;;;;;;;24.80;100.00;101287.91;2088409;28;21117;-63
2022/08/30 00:16:34;;;;;;;6.10;4.10;;;;;;;24.78;100.00;101286.88;2086883;28;20188;-64
2022/08/30 00:17:35;;;;;;;5.90;4.77;;;;;;;24.70;100.00;101283.78;2088755;28;20180;-63
2022/08/30 00:18:35;;;;;;;6.47;4.40;;;;;;;24.52;100.00;101270.06;2088382;28;20218;-63
2022/08/30 00:19:36;;;;;;;6.77;4.13;;;;;;;24.68;100.00;101288.41;2087680;28;20241;-63
2022/08/30 00:20:37;;;;;;;4.83;4.20;;;;;;;24.66;100.00;101279.66;2088728;28;20176;-63
2022/08/30 00:21:38;;;;;;;5.47;3.97;;;;;;;24.71;100.00;101284.56;2088657;28;20192;-63
2022/08/30 00:22:39;;;;;;;6.73;4.20;;;;;;;24.68;100.00;101294.84;2088769;28;20259;-64
2022/08/30 00:23:39;;;;;;;5.97;4.37;;;;;;;24.23;100.00;101215.94;2088405;28;20220;-64
2022/08/30 00:24:40;;;;;;;5.80;3.97;;;;;;;24.72;100.00;101305.94;2085959;28;20270;-64
2022/08/30 00:25:42;;;;;;;12.73;4.27;;;;;;;24.69;100.00;101292.78;2086730;28;20638;-63
2022/08/30 00:26:42;;;;;;;7.00;4.00;;;;;;;24.75;100.00;101296.38;2088362;28;20224;-63
2022/08/30 00:27:44;;;;;;;4.70;4.17;;;;;;;24.75;100.00;101296.38;2087644;28;20180;-63
2022/08/30 00:28:44;;;;;;;7.37;4.30;;;;;;;24.62;100.00;101279.88;2086756;28;20196;-63
2022/08/30 00:29:45;;;;;;;7.27;4.30;;;;;;;24.74;100.00;101298.47;2088956;28;20196;-63
2022/08/30 00:30:46;;;;;;;5.30;4.10;;;;;;;24.69;100.00;101295.63;2088052;28;20196;-62
2022/08/30 00:31:47;;;;;;;5.20;4.70;;;;;;;24.68;100.00;101300.53;2088583;28;20187;-64
2022/08/30 00:32:48;;;;;;;7.87;4.20;;;;;;;24.65;100.00;101297.91;2088353;28;20303;-63
2022/08/30 00:33:48;;;;;;;8.87;4.33;;;;;;;24.67;100.00;101292.53;2088707;28;20188;-63
2022/08/30 00:34:53;;;;;;;8.97;4.27;;;;;;;24.66;100.00;101302.31;2088675;28;20266;-63
2022/08/30 00:35:54;;;;;;;6.63;4.63;;;;;;;24.57;100.00;101308.97;2088181;28;20176;-63
2022/08/30 00:36:56;;;;;;;6.17;4.03;;;;;;;24.14;100.00;101238.81;2087374;28;20264;-63
2022/08/30 00:37:56;;;;;;;6.13;4.00;;;;;;;24.60;100.00;101305.13;2088024;28;20180;-64
2022/08/30 00:38:57;;;;;;;6.70;4.57;;;;;;;24.59;100.00;101308.47;2086666;28;20268;-63
2022/08/30 00:39:57;;;;;;;4.73;4.33;;;;;;;24.63;100.00;101309.00;2088453;28;20249;-63
2022/08/30 00:40:58;;;;;;;5.20;4.30;;;;;;;24.61;100.00;101308.75;2088350;28;20663;-63
2022/08/30 00:41:59;;;;;;;5.87;4.10;;;;;;;24.64;100.00;101304.88;2087567;28;20204;-63
2022/08/30 00:43:02;;;;;;;6.83;4.57;;;;;;;24.63;100.00;101303.34;2088580;28;20169;-63
2022/08/30 00:44:03;;;;;;;5.73;4.53;;;;;;;24.56;100.00;101303.81;2088503;28;20211;-63
2022/08/30 00:45:14;;;;;;;6.83;4.03;;;;;;;24.60;100.00;101313.63;2088411;28;20208;-63
2022/08/30 00:46:15;;;;;;;10.37;4.93;;;;;;;24.55;100.00;101314.38;2088956;28;20572;-64
2022/08/30 00:47:16;;;;;;;6.70;4.10;;;;;;;24.56;100.00;101320.84;2088509;28;20176;-63
2022/08/30 00:48:17;;;;;;;4.67;3.93;;;;;;;24.16;100.00;101276.69;2086998;28;20212;-62
2022/08/30 00:49:17;;;;;;;4.67;4.07;;;;;;;24.55;100.00;101317.22;2088046;28;20194;-62
2022/08/30 00:50:22;;;;;;;6.63;4.53;;;;;;;24.53;100.00;101319.78;2087667;28;20191;-63
2022/08/30 00:51:22;;;;;;;7.60;4.37;;;;;;;24.17;100.00;101268.97;2087212;28;20208;-63
2022/08/30 00:52:23;;;;;;;5.90;3.97;;;;;;;24.55;100.00;101322.09;2088312;28;20181;-63
2022/08/30 00:53:28;;;;;;;7.87;4.43;;;;;;;24.53;100.00;101321.84;2088609;28;20681;-63
2022/08/30 00:54:31;;;;;;;5.43;4.20;;;;;;;23.87;100.00;101220.47;2088664;28;20263;-63
2022/08/30 00:55:32;;;;;;;7.33;4.17;;;;;;;24.55;100.00;101320.03;2085418;28;20177;-64
2022/08/30 00:56:34;;;;;;;8.03;4.37;;;;;;;24.49;100.00;101305.09;2088751;28;20184;-63
2022/08/30 00:57:35;;;;;;;7.70;4.60;;;;;;;24.53;100.00;101324.69;2087671;28;20567;-63
2022/08/30 00:58:41;;;;;;;6.57;4.63;;;;;;;24.53;100.00;101321.84;2086629;28;20184;-63
2022/08/30 00:59:44;;;;;;;5.47;4.60;;;;;;;24.54;100.00;101331.88;2087091;28;20215;-63
2022/08/30 01:00:45;;;;;;;6.57;4.60;;;;;;;24.53;100.00;101321.84;2087987;28;20189;-63
2022/08/30 01:01:45;;;;;;;9.67;4.60;;;;;;;24.52;100.00;101325.97;2087012;28;20200;-63
2022/08/30 01:02:46;;;;;;;6.83;4.77;;;;;;;24.52;100.00;101325.97;2088447;28;20200;-63
2022/08/30 01:03:47;;;;;;;7.23;4.77;;;;;;;24.50;100.00;101312.31;2088068;28;20618;-64
2022/08/30 01:04:50;;;;;;;6.50;4.50;;;;;;;23.88;100.00;101218.38;2088465;28;20177;-63
2022/08/30 01:05:52;;;;;;;7.47;4.40;;;;;;;24.48;100.00;101319.78;2088526;28;20194;-63
2022/08/30 01:06:53;;;;;;;5.30;4.10;;;;;;;24.45;100.00;101312.28;2087838;28;20658;-63
2022/08/30 01:07:53;;;;;;;5.93;4.47;;;;;;;24.51;100.00;101330.84;2087670;28;20566;-63
2022/08/30 01:08:55;;;;;;;5.73;4.53;;;;;;;24.45;100.00;101320.78;2088312;28;20188;-62
2022/08/30 01:09:55;;;;;;;7.10;4.30;;;;;;;24.43;100.00;101318.47;2087257;28;20224;-62
2022/08/30 01:10:56;;;;;;;5.63;4.10;;;;;;;24.46;100.00;101317.44;2088366;28;20669;-62
2022/08/30 01:11:57;;;;;;;6.57;4.73;;;;;;;24.44;100.00;101322.06;2087632;28;20181;-62
2022/08/30 01:12:58;;;;;;;5.47;4.40;;;;;;;24.43;100.00;101320.53;2088367;28;20197;-63
2022/08/30 01:14:00;;;;;;;6.30;4.80;;;;;;;24.43;100.00;101324.16;2088720;28;20238;-62
2022/08/30 01:15:00;;;;;;;8.77;4.80;;;;;;;24.42;100.00;101319.00;2087622;28;20215;-62
2022/08/30 01:16:01;;;;;;;6.10;4.60;;;;;;;23.79;100.00;101229.97;2087596;28;20200;-63
2022/08/30 01:17:04;;;;;;;6.57;4.53;;;;;;;24.39;100.00;101323.63;2087058;28;20696;-62
2022/08/30 01:18:05;;;;;;;7.83;4.77;;;;;;;23.92;100.00;101245.22;2088100;28;20756;-63
2022/08/30 01:19:37;;;;;;;5.27;4.23;;;;;;;24.38;100.00;101326.94;2087428;28;20212;-63
2022/08/30 01:20:45;;;;;;;7.70;4.40;;;;;;;23.96;100.00;101259.13;2087501;28;20188;-63
2022/08/30 01:21:56;;;;;;;6.13;4.80;;;;;;;24.36;100.00;101316.13;2088646;28;20191;-63
2022/08/30 01:23:27;;;;;;;7.03;4.60;;;;;;;24.35;100.00;101325.13;2089491;28;20183;-62
2022/08/30 01:24:29;;;;;;;7.53;5.07;;;;;;;24.36;100.00;101324.63;2089145;28;20246;-63
2022/08/30 01:25:30;;;;;;;7.43;5.33;;;;;;;24.33;100.00;101314.34;2096977;28;20270;-63
2022/08/30 01:26:33;;;;;;;11.33;5.53;;;;;;;24.25;100.00;101321.75;2088850;28;20188;-62
2022/08/30 01:27:38;;;;;;;14.20;5.53;;;;;;;24.28;100.00;101317.94;2089269;28;20242;-63
2022/08/30 01:28:40;;;;;;;11.77;5.87;;;;;;;24.29;100.00;101315.84;2089341;28;20287;-63
2022/08/30 01:29:43;;;;;;;7.10;4.70;;;;;;;24.26;100.00;101314.06;2089032;28;20189;-63
2022/08/30 01:30:45;;;;;;;7.97;4.70;;;;;;;24.27;100.00;101307.09;2089805;28;20184;-63
2022/08/30 01:31:45;;;;;;;7.33;4.70;;;;;;;24.30;100.00;101318.19;2088703;28;20200;-63
2022/08/30 01:32:47;;;;;;;8.37;5.10;;;;;;;24.28;100.00;101328.47;2089067;28;20194;-63
2022/08/30 01:33:47;;;;;;;6.57;4.23;;;;;;;23.81;100.00;101241.53;2088781;28;20188;-63
2022/08/30 01:34:48;;;;;;;5.40;4.87;;;;;;;24.23;100.00;101315.84;2089870;28;20191;-64
2022/08/30 01:36:01;;;;;;;6.40;4.50;;;;;;;24.19;100.00;101315.31;2089308;28;20185;-63
2022/08/30 01:37:01;;;;;;;6.03;4.73;;;;;;;24.16;100.00;101307.81;2089700;28;20176;-63
2022/08/30 01:38:02;;;;;;;5.93;4.70;;;;;;;23.17;100.00;101162.25;2089764;28;20200;-63
2022/08/30 01:39:04;;;;;;;5.43;4.37;;;;;;;24.15;100.00;101311.19;2089402;28;20196;-62
2022/08/30 01:40:05;;;;;;;8.47;4.90;;;;;;;24.18;100.00;101318.66;2089322;28;20568;-63
2022/08/30 01:41:14;;;;;;;7.27;4.67;;;;;;;24.18;100.00;101315.81;2089058;28;20253;-62
2022/08/30 01:42:16;;;;;;;6.60;4.73;;;;;;;24.18;100.00;101322.28;2088750;28;20192;-63
2022/08/30 01:43:18;;;;;;;8.13;4.60;;;;;;;24.13;100.00;101320.19;2088428;28;20185;-64
2022/08/30 01:44:18;;;;;;;6.83;4.27;;;;;;;24.11;100.00;101319.91;2089051;28;20181;-64
2022/08/30 01:45:19;;;;;;;6.87;4.70;;;;;;;23.59;100.00;101252.78;2088431;28;20184;-64
2022/08/30 01:46:23;;;;;;;6.97;4.33;;;;;;;24.03;100.00;101318.88;2088984;28;20268;-64
2022/08/30 01:47:24;;;;;;;7.80;4.80;;;;;;;24.02;100.00;101325.03;2089473;28;20546;-63
2022/08/30 01:48:27;;;;;;;7.03;4.77;;;;;;;23.99;100.00;101318.31;2088940;28;20552;-64
2022/08/30 01:49:27;;;;;;;8.67;4.23;;;;;;;23.97;100.00;101315.25;2089795;28;20188;-63
2022/08/30 01:50:28;;;;;;;5.73;4.73;;;;;;;23.43;100.00;101242.91;2089560;28;20260;-64
2022/08/30 01:51:29;;;;;;;7.77;4.80;;;;;;;23.89;100.00;101311.34;2088829;28;20682;-63
2022/08/30 01:52:30;;;;;;;6.97;4.70;;;;;;;23.88;100.00;101306.13;2089758;28;20250;-63
2022/08/30 01:53:31;;;;;;;7.50;5.37;;;;;;;23.79;100.00;101304.31;2085857;28;20273;-64
2022/08/30 01:54:34;;;;;;;8.63;4.97;;;;;;;23.80;100.00;101308.69;2088891;28;20184;-64
2022/08/30 01:55:35;;;;;;;7.93;5.20;;;;;;;23.78;100.00;101314.09;2089669;28;20216;-63
2022/08/30 01:56:36;;;;;;;8.97;5.00;;;;;;;23.75;100.00;101308.66;2089505;28;20611;-64
2022/08/30 01:57:36;;;;;;;7.50;5.30;;;;;;;23.68;100.00;101309.13;2089885;28;20188;-63
2022/08/30 01:58:37;;;;;;;6.83;5.10;;;;;;;23.71;100.00;101308.91;2089479;28;20195;-64
2022/08/30 01:59:42;;;;;;;7.33;5.47;;;;;;;23.63;100.00;101316.31;2089593;28;20192;-63
2022/08/30 02:00:42;;;;;;;7.50;5.13;;;;;;;23.64;100.00;101309.38;2088334;28;20184;-63
2022/08/30 02:01:43;;;;;;;8.50;5.27;;;;;;;22.99;100.00;101220.00;2087047;28;21195;-64
2022/08/30 02:02:44;;;;;;;11.03;5.10;;;;;;;23.62;100.00;101320.44;2089300;28;20198;-63
2022/08/30 02:03:45;;;;;;;8.53;5.23;;;;;;;23.59;100.00;101324.25;2089491;28;20188;-64
2022/08/30 02:04:46;;;;;;;16.07;5.70;;;;;;;23.56;100.00;101311.16;2089640;28;20267;-64
2022/08/30 02:05:47;;;;;;;7.60;5.10;;;;;;;22.96;100.00;101223.03;2089094;28;20195;-63
2022/08/30 02:06:48;;;;;;;11.53;5.90;;;;;;;23.63;100.00;101324.03;2089490;28;20223;-63
2022/08/30 02:07:48;;;;;;;9.70;5.23;;;;;;;23.65;100.00;101318.66;2089267;28;20625;-63
2022/08/30 02:08:49;;;;;;;13.47;5.60;;;;;;;23.59;100.00;101315.78;2089473;28;20218;-63
2022/08/30 02:09:51;;;;;;;10.77;5.40;;;;;;;23.27;100.00;101283.19;2089188;28;20203;-63
2022/08/30 02:10:51;;;;;;;9.73;5.60;;;;;;;23.66;100.00;101325.84;2087057;28;20271;-63
2022/08/30 02:11:52;;;;;;;6.53;5.10;;;;;;;23.70;100.00;101317.91;2089339;28;20184;-63
2022/08/30 02:12:52;;;;;;;21.43;6.63;;;;;;;23.67;100.00;101330.22;2090074;28;20200;-63
2022/08/30 02:13:53;;;;;;;14.40;5.93;;;;;;;23.61;100.00;101329.41;2088691;28;20185;-63
2022/08/30 02:14:53;;;;;;;13.60;6.40;;;;;;;23.56;100.00;101328.13;2088557;28;20180;-63
2022/08/30 02:15:54;;;;;;;15.03;6.57;;;;;;;23.55;100.00;101328.63;2089437;28;20192;-63
2022/08/30 02:16:55;;;;;;;9.30;5.60;;;;;;;23.48;100.00;101324.19;2089441;28;20238;-63
2022/08/30 02:17:55;;;;;;;12.73;5.90;;;;;;;23.55;100.00;101329.38;2088403;28;20266;-64
2022/08/30 02:18:56;;;;;;;13.53;6.20;;;;;;;23.55;100.00;101343.53;2089285;28;20662;-63
2022/08/30 02:19:56;;;;;;;8.10;5.80;;;;;;;23.59;100.00;101332.75;2089453;28;20203;-63
2022/08/30 02:20:57;;;;;;;7.87;5.40;;;;;;;23.57;100.00;101331.69;2089930;28;20238;-63
2022/08/30 02:21:58;;;;;;;13.13;6.47;;;;;;;23.52;100.00;101333.22;2089377;28;20180;-63
2022/08/30 02:22:58;;;;;;;8.53;5.30;;;;;;;23.52;100.00;101332.44;2088649;28;20679;-63
2022/08/30 02:23:59;;;;;;;8.60;5.17;;;;;;;23.50;100.00;101344.25;2089599;28;20187;-63
2022/08/30 02:25:00;;;;;;;9.37;5.33;;;;;;;23.52;100.00;101336.06;2089011;28;20192;-63
2022/08/30 02:26:00;;;;;;;8.70;5.57;;;;;;;23.51;100.00;101337.34;2089388;28;20189;-63
2022/08/30 02:27:01;;;;;;;7.13;5.07;;;;;;;23.35;100.00;101312.56;2088853;28;20247;-63
2022/08/30 02:28:02;;;;;;;5.83;5.17;;;;;;;23.48;100.00;101338.34;2088638;28;20684;-64
2022/08/30 02:29:04;;;;;;;6.40;5.33;;;;;;;23.51;100.00;101357.16;2089642;28;20184;-63
2022/08/30 02:30:06;;;;;;;6.87;5.20;;;;;;;23.52;100.00;101355.88;2088514;28;20226;-63
2022/08/30 02:31:07;;;;;;;8.17;5.53;;;;;;;23.42;100.00;101340.38;2089559;28;20188;-63
2022/08/30 02:32:07;;;;;;;6.97;5.27;;;;;;;23.34;100.00;101332.84;2088178;28;20231;-63
2022/08/30 02:33:08;;;;;;;7.70;5.23;;;;;;;23.48;100.00;101341.16;2089246;28;20337;-63
2022/08/30 02:34:08;;;;;;;5.83;5.20;;;;;;;23.52;100.00;101352.25;2089505;28;20189;-63
2022/08/30 02:35:09;;;;;;;7.70;5.07;;;;;;;23.56;100.00;101352.78;2088997;28;20184;-64
2022/08/30 02:36:09;;;;;;;9.47;6.00;;;;;;;23.60;100.00;101364.66;2089252;28;20184;-64
2022/08/30 02:37:10;;;;;;;7.53;5.27;;;;;;;23.59;100.00;101369.53;2089626;28;20546;-63
2022/08/30 02:38:11;;;;;;;7.93;5.10;;;;;;;23.39;100.00;101321.56;2088305;28;20192;-63
2022/08/30 02:39:13;;;;;;;11.27;5.43;;;;;;;23.02;100.00;101263.44;2088907;28;20187;-63
2022/08/30 02:40:14;;;;;;;8.00;5.40;;;;;;;23.61;100.00;101354.88;2087592;28;20223;-63
2022/08/30 02:41:15;;;;;;;6.90;5.23;;;;;;;23.22;100.00;101298.06;2089090;28;20202;-64
2022/08/30 02:42:15;;;;;;;9.43;5.57;;;;;;;23.65;100.00;101356.19;2088763;28;20564;-63
2022/08/30 02:43:16;;;;;;;10.10;5.50;;;;;;;23.63;100.00;101355.13;2089604;28;20185;-63
2022/08/30 02:44:17;;;;;;;6.37;4.93;;;;;;;23.63;100.00;101355.94;2088601;28;20546;-64
2022/08/30 02:45:17;;;;;;;8.20;6.00;;;;;;;23.51;100.00;101336.56;2088928;28;20203;-64
2022/08/30 02:46:18;;;;;;;9.20;5.50;;;;;;;23.57;100.00;101355.13;2088183;28;20342;-63
2022/08/30 02:47:18;;;;;;;8.17;6.20;;;;;;;23.63;100.00;101358.75;2088680;28;20661;-63
2022/08/30 02:48:19;;;;;;;8.90;5.70;;;;;;;23.63;100.00;101360.81;2089244;28;20192;-64
2022/08/30 02:49:20;;;;;;;10.77;5.93;;;;;;;23.60;100.00;101359.00;2089017;28;20193;-63
2022/08/30 02:50:20;;;;;;;12.70;6.33;;;;;;;23.58;100.00;101362.31;2089236;28;20225;-63
2022/08/30 02:51:20;;;;;;;14.43;6.10;;;;;;;23.59;100.00;101363.88;2088885;28;20205;-63
2022/08/30 02:52:21;;;;;;;9.20;5.93;;;;;;;23.59;100.00;101375.19;2089354;28;20191;-63
2022/08/30 02:53:22;;;;;;;7.17;6.10;;;;;;;23.54;100.00;101358.19;2088565;28;20200;-63
2022/08/30 02:54:23;;;;;;;9.47;6.00;;;;;;;23.58;100.00;101370.81;2089734;28;20230;-63
2022/08/30 02:55:24;;;;;;;8.13;5.13;;;;;;;23.60;100.00;101364.66;2088428;28;20259;-63
2022/08/30 02:56:24;;;;;;;9.70;5.60;;;;;;;23.58;100.00;101376.47;2087971;28;20188;-64
2022/08/30 02:57:25;;;;;;;12.43;5.97;;;;;;;23.60;100.00;101375.97;2089177;28;20199;-63
2022/08/30 02:58:25;;;;;;;6.47;5.30;;;;;;;23.59;100.00;101378.03;2088196;28;20574;-63
2022/08/30 02:59:26;;;;;;;7.60;5.57;;;;;;;23.62;100.00;101367.75;2089055;28;20192;-64
2022/08/30 03:00:26;;;;;;;8.47;5.40;;;;;;;23.61;100.00;101381.13;2088497;28;20188;-63
2022/08/30 03:01:27;;;;;;;7.53;5.17;;;;;;;23.60;100.00;101375.97;2087681;28;20188;-63
2022/08/30 03:02:29;;;;;;;8.67;5.20;;;;;;;23.58;100.00;101378.50;2089262;28;20184;-63
2022/08/30 03:03:30;;;;;;;6.33;5.33;;;;;;;23.58;100.00;101387.78;2088644;28;20653;-63
2022/08/30 03:04:30;;;;;;;7.67;5.20;;;;;;;23.15;100.00;101320.34;2089124;28;20541;-63
2022/08/30 03:05:32;;;;;;;8.27;5.50;;;;;;;23.60;100.00;101375.97;2088314;28;20215;-63
2022/08/30 03:06:33;;;;;;;8.80;5.40;;;;;;;23.33;100.00;101337.72;2088720;28;20260;-63
2022/08/30 03:07:33;;;;;;;7.93;5.63;;;;;;;23.58;100.00;101379.31;2088459;28;20238;-63
2022/08/30 03:08:34;;;;;;;10.70;5.53;;;;;;;23.58;100.00;101379.31;2088368;28;20193;-64
2022/08/30 03:09:35;;;;;;;7.90;6.00;;;;;;;23.59;100.00;101374.44;2088906;28;20192;-62
2022/08/30 03:10:37;;;;;;;9.83;5.50;;;;;;;23.60;100.00;101384.47;2089442;28;20613;-63
2022/08/30 03:11:37;;;;;;;8.93;6.10;;;;;;;23.42;100.00;101359.38;2088880;28;20184;-63
2022/08/30 03:12:40;;;;;;;5.97;5.33;;;;;;;22.98;100.00;101294.75;2087812;28;20212;-63
2022/08/30 03:13:40;;;;;;;6.43;5.23;;;;;;;23.55;100.00;101382.38;2088762;28;20184;-64
2022/08/30 03:14:41;;;;;;;7.27;5.70;;;;;;;23.56;100.00;101389.56;2088226;28;20192;-63
2022/08/30 03:15:42;;;;;;;6.30;5.70;;;;;;;23.59;100.00;101392.16;2088785;28;20230;-63
2022/08/30 03:16:42;;;;;;;11.80;6.20;;;;;;;23.57;100.00;101386.25;2088135;28;20204;-62
2022/08/30 03:17:43;;;;;;;8.53;6.27;;;;;;;23.35;100.00;101357.81;2088038;28;20572;-63
2022/08/30 03:18:43;;;;;;;12.30;6.03;;;;;;;23.57;100.00;101388.28;2088698;28;20199;-63
2022/08/30 03:19:44;;;;;;;12.13;6.37;;;;;;;23.60;100.00;101384.47;2089270;28;20172;-63
2022/08/30 03:20:46;;;;;;;12.97;6.20;;;;;;;23.64;100.00;101390.69;2089037;28;20275;-64
2022/08/30 03:21:46;;;;;;;9.87;5.90;;;;;;;23.57;100.00;101380.59;2088163;28;20181;-63
2022/08/30 03:22:47;;;;;;;7.37;5.47;;;;;;;23.63;100.00;101384.22;2089077;28;20727;-63
2022/08/30 03:23:47;;;;;;;12.40;6.27;;;;;;;23.62;100.00;101382.69;2088971;28;20189;-63
2022/08/30 03:24:48;;;;;;;11.30;6.00;;;;;;;23.71;100.00;101385.31;2088451;28;20276;-63
2022/08/30 03:25:48;;;;;;;11.67;6.37;;;;;;;23.72;100.00;101388.91;2087853;28;20578;-64
2022/08/30 03:26:49;;;;;;;6.53;5.67;;;;;;;23.71;100.00;101390.97;2087217;28;20224;-63
2022/08/30 03:27:49;;;;;;;10.97;6.00;;;;;;;23.76;100.00;101395.13;2088680;28;20612;-63
2022/08/30 03:28:50;;;;;;;7.07;5.80;;;;;;;23.65;100.00;101378.06;2088112;28;20658;-64
2022/08/30 03:29:50;;;;;;;9.87;5.70;;;;;;;23.74;100.00;101395.63;2088818;28;20612;-63
2022/08/30 03:30:51;;;;;;;10.70;6.17;;;;;;;23.70;100.00;101375.25;2088912;28;20262;-63
2022/08/30 03:31:51;;;;;;;7.33;5.60;;;;;;;23.77;100.00;101396.66;2088746;28;20192;-63
2022/08/30 03:32:52;;;;;;;8.53;5.80;;;;;;;23.78;100.00;101401.81;2088747;28;20371;-63
2022/08/30 03:33:52;;;;;;;13.57;6.03;;;;;;;23.75;100.00;101396.41;2088024;28;20560;-64
2022/08/30 03:34:53;;;;;;;7.77;5.73;;;;;;;23.78;100.00;101401.81;2088042;28;20247;-62
2022/08/30 03:35:54;;;;;;;8.27;5.73;;;;;;;23.75;100.00;101397.16;2088794;28;20237;-64
2022/08/30 03:36:55;;;;;;;13.47;6.50;;;;;;;23.79;100.00;101405.44;2088476;28;20634;-62
2022/08/30 03:37:57;;;;;;;7.90;5.73;;;;;;;23.74;100.00;101392.78;2088510;28;20176;-63
2022/08/30 03:38:58;;;;;;;10.40;6.00;;;;;;;23.82;100.00;101396.72;2089041;28;20180;-62
2022/08/30 03:39:58;;;;;;;15.03;6.37;;;;;;;23.86;100.00;101404.97;2088378;28;20184;-62
2022/08/30 03:40:59;;;;;;;9.70;5.90;;;;;;;23.85;100.00;101407.00;2088309;28;20188;-62
2022/08/30 03:41:59;;;;;;;10.70;5.93;;;;;;;23.78;100.00;101384.84;2087827;28;20184;-62
2022/08/30 03:43:00;;;;;;;17.50;7.27;;;;;;;23.85;100.00;101397.75;2087728;28;20180;-62
2022/08/30 03:44:01;;;;;;;18.40;6.60;;;;;;;23.67;100.00;101379.13;2088272;28;20199;-63
2022/08/30 03:45:04;;;;;;;13.80;6.30;;;;;;;23.76;100.00;101397.94;2087765;28;20183;-63
2022/08/30 03:46:04;;;;;;;9.93;5.83;;;;;;;23.75;100.00;101397.16;2087433;28;20688;-63
2022/08/30 03:47:06;;;;;;;14.63;5.90;;;;;;;23.77;100.00;101403.09;2088176;28;20621;-63
2022/08/30 03:48:06;;;;;;;10.43;6.00;;;;;;;23.76;100.00;101395.91;2088031;28;20180;-63
2022/08/30 03:49:08;;;;;;;12.67;6.00;;;;;;;23.67;100.00;101389.66;2088939;28;20608;-63
2022/08/30 03:50:10;;;;;;;10.53;6.10;;;;;;;23.25;100.00;101328.16;2087713;28;20208;-64
2022/08/30 03:51:10;;;;;;;12.87;6.07;;;;;;;23.67;100.00;101386.81;2088501;28;20184;-63
2022/08/30 03:52:10;;;;;;;10.23;5.70;;;;;;;23.76;100.00;101414.94;2087961;28;20196;-64
2022/08/30 03:53:11;;;;;;;11.90;6.07;;;;;;;23.44;100.00;101356.84;2088762;28;20342;-63
2022/08/30 03:54:12;;;;;;;10.40;5.97;;;;;;;23.68;100.00;101400.47;2088826;28;20195;-63
2022/08/30 03:55:13;;;;;;;9.90;5.83;;;;;;;22.87;100.00;101272.06;2087789;28;20227;-64
2022/08/30 03:56:15;;;;;;;7.93;5.90;;;;;;;23.69;100.00;101401.25;2088231;28;20185;-63
2022/08/30 03:57:15;;;;;;;9.17;5.73;;;;;;;23.68;100.00;101423.09;2088762;28;20192;-64
2022/08/30 03:58:16;;;;;;;8.73;5.90;;;;;;;22.92;100.00;101299.59;2088470;28;20188;-63
2022/08/30 03:59:16;;;;;;;7.20;5.80;;;;;;;23.62;100.00;101405.31;2088029;28;21690;-63
2022/08/30 04:00:17;;;;;;;9.90;6.00;;;;;;;23.60;100.00;101407.84;2088081;28;20230;-64
2022/08/30 04:01:18;;;;;;;10.30;5.60;;;;;;;22.95;100.00;101297.81;2088036;28;20546;-63
2022/08/30 04:02:19;;;;;;;7.60;5.40;;;;;;;23.66;100.00;101405.09;2087410;28;20180;-64
2022/08/30 04:03:24;;;;;;;9.97;5.43;;;;;;;22.75;100.00;101266.81;2088391;28;20188;-64
2022/08/30 04:04:25;;;;;;;8.03;5.67;;;;;;;23.66;100.00;101399.41;2088702;28;20510;-63
2022/08/30 04:05:26;;;;;;;7.30;5.10;;;;;;;23.70;100.00;101397.13;2087348;28;20177;-63
2022/08/30 04:06:27;;;;;;;6.23;5.00;;;;;;;23.71;100.00;101398.69;2088467;28;20211;-63
2022/08/30 04:07:27;;;;;;;5.83;5.00;;;;;;;23.69;100.00;101392.75;2088089;28;20192;-63
2022/08/30 04:08:28;;;;;;;8.03;5.20;;;;;;;23.51;100.00;101373.34;2088215;28;20172;-63
2022/08/30 04:09:28;;;;;;;7.63;5.07;;;;;;;23.64;100.00;101382.19;2088484;28;20668;-64
2022/08/30 04:10:29;;;;;;;6.70;5.10;;;;;;;23.65;100.00;101390.16;2088298;28;20665;-63
2022/08/30 04:11:29;;;;;;;6.20;5.00;;;;;;;23.75;100.00;101402.81;2088706;28;20187;-63
2022/08/30 04:12:30;;;;;;;5.20;4.57;;;;;;;23.25;100.00;101318.91;2088335;28;20212;-63
2022/08/30 04:13:30;;;;;;;6.43;5.00;;;;;;;23.71;100.00;101396.63;2088307;28;20588;-64
2022/08/30 04:14:31;;;;;;;7.60;4.67;;;;;;;23.71;100.00;101395.84;2088046;28;20184;-63
2022/08/30 04:15:31;;;;;;;8.30;5.63;;;;;;;23.69;100.00;101396.34;2088148;28;20192;-63
2022/08/30 04:16:32;;;;;;;6.80;5.10;;;;;;;23.69;100.00;101404.09;2087719;28;21056;-63
2022/08/30 04:17:32;;;;;;;9.40;5.40;;;;;;;23.72;100.00;101400.22;2087426;28;20269;-64
2022/08/30 04:18:34;;;;;;;9.20;5.47;;;;;;;23.75;100.00;101405.66;2087906;28;20186;-63
2022/08/30 04:19:34;;;;;;;9.73;6.00;;;;;;;23.78;100.00;101410.31;2088996;28;20590;-63
2022/08/30 04:20:36;;;;;;;8.03;4.80;;;;;;;23.79;100.00;101408.28;2087301;28;20215;-63
2022/08/30 04:21:37;;;;;;;8.10;5.43;;;;;;;23.77;100.00;101408.75;2087636;28;20645;-64
2022/08/30 04:22:37;;;;;;;10.97;5.70;;;;;;;23.78;100.00;101406.69;2087361;28;20644;-64
2022/08/30 04:23:38;;;;;;;11.50;6.43;;;;;;;23.81;100.00;101409.31;2087421;28;20184;-63
2022/08/30 04:24:40;;;;;;;13.83;8.57;;;;;;;23.82;100.00;101410.84;2087907;28;20203;-63
2022/08/30 04:25:41;;;;;;;10.57;5.67;;;;;;;23.86;100.00;101405.75;2088205;28;20267;-63
2022/08/30 04:26:41;;;;;;;9.97;7.43;;;;;;;23.33;100.00;101323.56;2087248;28;20216;-63
2022/08/30 04:27:44;;;;;;;9.77;6.50;;;;;;;23.90;100.00;101409.13;2087323;28;20181;-63
2022/08/30 04:28:45;;;;;;;20.53;9.67;;;;;;;23.92;100.00;101409.41;2087044;28;20738;-63
2022/08/30 04:29:46;;;;;;;15.27;6.97;;;;;;;23.96;100.00;101415.59;2088169;28;20614;-63
2022/08/30 04:30:47;;;;;;;7.93;5.13;;;;;;;23.93;100.00;101413.78;2087874;28;20234;-63
2022/08/30 04:31:47;;;;;;;14.93;6.63;;;;;;;23.97;100.00;101416.38;2087460;28;20252;-63
2022/08/30 04:32:48;;;;;;;17.03;7.73;;;;;;;23.95;100.00;101410.44;2087479;28;20267;-63
2022/08/30 04:33:49;;;;;;;23.17;8.73;;;;;;;23.82;100.00;101402.38;2085890;28;20192;-62
2022/08/30 04:34:54;;;;;;;22.97;8.53;;;;;;;23.94;100.00;101420.19;2087486;28;20177;-63
2022/08/30 04:36:03;;;;;;;18.33;7.60;;;;;;;23.95;100.00;101421.78;2085047;28;20183;-63
2022/08/30 04:37:04;;;;;;;14.90;6.80;;;;;;;23.92;100.00;101422.78;2085935;28;20238;-62
2022/08/30 04:38:04;;;;;;;16.00;6.80;;;;;;;23.93;100.00;101424.31;2086989;28;20184;-62
2022/08/30 04:39:05;;;;;;;14.67;6.80;;;;;;;23.34;100.00;101332.84;2088215;28;20223;-63
2022/08/30 04:40:07;;;;;;;16.27;7.00;;;;;;;23.94;100.00;101423.03;2087661;28;20214;-62
2022/08/30 04:41:16;;;;;;;15.13;6.70;;;;;;;23.93;100.00;101424.31;2086829;28;20657;-62
2022/08/30 04:42:17;;;;;;;12.37;6.53;;;;;;;23.03;100.00;101276.31;2087577;28;20623;-63
2022/08/30 04:43:17;;;;;;;10.80;5.90;;;;;;;23.46;100.00;101343.75;2087664;28;20188;-63